Portada
METAR-TAF:

METAR-TAF

Aeropuertos :

Aeropuerto Internacional de Pohnpei

Pohnpei, Micronesia

latitud: 06-59N, longitud: 158-12E, altitud: 2 m

METAR: falta

Hora: 13:55 (02:55 UTC)

Pronóstico

El informe se hizo hace 3 horas y 28 minutos, a las 23:27 UTC
Pronóstico válido del 02 a las 00 UTC al 02 a las 24 UTC
Viento 10 kt del este-sureste
Visibilidad: 10 km
Nubes dispersas a una altura de 1800 ft
Cielo nuboso a una altura de 12000 ft
chaparrones en las proximidades

TAF: PTPN 012327Z 0200/0224 11010KT P6SM VCSH SCT018 BKN120

Observaciones y pronósticos meteorológicos de más de 4000 aeropuertos (mensajes METAR y TAF).

Los puntos amarillos y rojos representan las estaciones disponibles.

Ponga el ratón en el punto deseado para ver el nombre de la estación.

Haga clic para ver las observaciones y los pronósticos meteorológicos.

Para cambiar el mapa : haga clic en los botones verdes con una cruz de color negro para hacer un zoom, en el botón verde con un guión para alejar o en las flechas verdes para mapas adyacentes.


METAR-TAF: